Time;durP1;ratioP1;P1;durP2;ratioP2;P2;SDS_P1;SDS_P2;PMS_P1;PMS_P2;Temp;Humidity;BMP_temperature;BMP_pressure;BME280_temperature;BME280_humidity;BME280_pressure;Samples;Min_cycle;Max_cycle;Signal;HPM_P1;HPM_P2
2022/11/08 00:02:33;;;;;;;25.65;15.00;;;;;;;12.06;100.00;98769.13;5034788;28;20217;-55
2022/11/08 00:15:54;;;;;;;27.00;14.30;;;;;;;11.53;100.00;98761.53;5034390;28;20205;-55
2022/11/08 00:18:20;;;;;;;22.15;14.35;;;;;;;11.48;100.00;98763.59;5034493;28;20201;-55
2022/11/08 00:20:45;;;;;;;20.55;13.98;;;;;;;11.50;100.00;98744.44;5034179;28;20198;-55
2022/11/08 00:23:11;;;;;;;21.67;14.73;;;;;;;11.61;100.00;98756.72;5034188;28;20202;-55
2022/11/08 00:25:36;;;;;;;25.17;14.70;;;;;;;11.69;100.00;98757.88;5034165;28;20162;-55
2022/11/08 00:28:01;;;;;;;20.67;14.15;;;;;;;11.74;100.00;98760.94;5016646;28;20185;-56
2022/11/08 00:30:27;;;;;;;19.30;13.77;;;;;;;11.84;100.00;98750.81;5034048;28;20166;-55
2022/11/08 00:32:52;;;;;;;18.55;13.50;;;;;;;11.99;100.00;98754.94;5034390;28;20175;-55
2022/11/08 00:35:17;;;;;;;26.10;13.68;;;;;;;11.71;100.00;98718.84;5016320;28;20278;-55
2022/11/08 00:37:43;;;;;;;21.65;14.13;;;;;;;12.06;100.00;98759.59;5016169;28;20567;-55
2022/11/08 00:40:09;;;;;;;21.70;14.30;;;;;;;12.16;100.00;98759.78;5033778;28;20197;-55
2022/11/08 00:42:34;;;;;;;22.17;14.98;;;;;;;12.22;100.00;98756.78;5033790;28;20182;-55
2022/11/08 00:45:00;;;;;;;23.80;14.57;;;;;;;12.14;100.00;98751.28;5034116;28;20206;-55
2022/11/08 00:47:25;;;;;;;21.00;13.70;;;;;;;11.86;100.00;98736.81;5033675;28;20170;-55
2022/11/08 00:49:50;;;;;;;21.42;13.40;;;;;;;11.63;100.00;98740.13;5015888;28;20201;-55
2022/11/08 00:52:16;;;;;;;25.80;14.48;;;;;;;11.68;100.00;98747.59;5033672;28;20162;-55
2022/11/08 00:54:41;;;;;;;22.35;14.13;;;;;;;11.56;100.00;98743.22;5033491;28;20628;-55
2022/11/08 00:57:07;;;;;;;21.85;13.90;;;;;;;11.39;100.00;98740.91;5032864;28;20178;-55
2022/11/08 00:59:32;;;;;;;20.08;12.50;;;;;;;11.54;100.00;98743.31;5033771;28;20480;-55
2022/11/08 01:01:57;;;;;;;20.10;13.85;;;;;;;11.47;100.00;98739.47;5033317;28;20701;-55
2022/11/08 01:04:23;;;;;;;18.23;12.23;;;;;;;11.06;100.00;98706.88;5015968;28;20182;-55
2022/11/08 01:06:48;;;;;;;24.77;13.07;;;;;;;11.45;100.00;98738.72;5015661;28;20546;-55
2022/11/08 01:09:14;;;;;;;22.65;14.18;;;;;;;11.71;100.00;98742.19;5033352;28;20727;-55
2022/11/08 01:11:44;;;;;;;24.40;15.65;;;;;;;11.80;100.00;98734.59;5033254;28;20170;-55
2022/11/08 01:14:09;;;;;;;20.50;13.57;;;;;;;11.72;100.00;98738.69;5033484;28;20181;-55
2022/11/08 01:16:35;;;;;;;25.75;13.73;;;;;;;11.69;100.00;98731.94;5033075;28;20174;-55
2022/11/08 01:19:00;;;;;;;18.52;13.05;;;;;;;11.55;100.00;98726.00;5033156;28;20174;-55
2022/11/08 01:21:27;;;;;;;18.77;12.98;;;;;;;11.40;100.00;98733.03;5032994;28;20205;-55
2022/11/08 01:23:56;;;;;;;22.55;13.55;;;;;;;11.39;100.00;98726.19;5033168;28;20213;-55
2022/11/08 01:26:24;;;;;;;15.73;12.63;;;;;;;11.25;100.00;98728.88;5033185;28;20175;-55
2022/11/08 01:28:50;;;;;;;17.17;12.90;;;;;;;11.20;100.00;98720.56;5033302;28;20170;-55
2022/11/08 01:31:18;;;;;;;19.08;12.18;;;;;;;11.04;100.00;98719.09;5014987;28;20674;-55
2022/11/08 01:33:43;;;;;;;19.75;12.50;;;;;;;11.09;100.00;98714.44;5033057;28;20174;-55
2022/11/08 01:36:14;;;;;;;16.52;12.13;;;;;;;11.21;100.00;98711.03;5032789;28;20171;-56
2022/11/08 01:38:40;;;;;;;20.25;12.27;;;;;;;11.36;100.00;98710.84;5032949;28;20155;-55
2022/11/08 01:41:07;;;;;;;13.80;10.45;;;;;;;11.39;100.00;98707.22;5015116;28;20194;-55
2022/11/08 01:43:39;;;;;;;19.45;12.93;;;;;;;11.41;100.00;98708.78;5032515;28;20189;-55
2022/11/08 01:46:17;;;;;;;17.02;12.35;;;;;;;11.54;100.00;98703.59;5032675;28;20178;-55
2022/11/08 01:48:48;;;;;;;12.45;8.75;;;;;;;11.48;100.00;98693.63;5032793;28;20622;-55
2022/11/08 01:51:16;;;;;;;18.17;9.60;;;;;;;11.57;100.00;98693.88;5032606;28;20229;-55
2022/11/08 01:53:43;;;;;;;13.40;9.50;;;;;;;11.50;100.00;98694.38;5032699;28;20173;-55
2022/11/08 01:56:11;;;;;;;14.40;9.60;;;;;;;11.34;100.00;98676.47;5032433;28;20178;-55
2022/11/08 01:58:40;;;;;;;11.23;9.10;;;;;;;11.33;100.00;98699.88;5032378;28;20265;-55
2022/11/08 02:01:05;;;;;;;11.75;8.93;;;;;;;11.35;100.00;98695.41;5014682;28;20202;-55
2022/11/08 02:03:33;;;;;;;10.82;8.52;;;;;;;11.39;100.00;98678.72;5032346;28;20201;-55
2022/11/08 02:06:00;;;;;;;8.27;7.28;;;;;;;11.51;100.00;98670.13;5032305;28;20220;-55
2022/11/08 02:08:46;;;;;;;10.18;7.82;;;;;;;11.47;100.00;98668.66;5031348;28;20721;-55
2022/11/08 02:11:14;;;;;;;13.00;8.00;;;;;;;11.42;100.00;98662.97;5031797;28;20194;-55
2022/11/08 02:13:40;;;;;;;9.82;7.30;;;;;;;11.40;100.00;98659.66;5032503;28;20179;-55
2022/11/08 02:16:11;;;;;;;11.77;7.22;;;;;;;11.35;100.00;98657.38;5032326;28;20181;-55
2022/11/08 02:18:37;;;;;;;11.35;8.07;;;;;;;11.38;100.00;98664.94;5014463;28;20167;-55
2022/11/08 02:21:19;;;;;;;11.18;7.28;;;;;;;11.44;100.00;98655.94;5032003;28;20699;-55
2022/11/08 02:24:12;;;;;;;11.95;7.68;;;;;;;11.47;100.00;98648.78;5032038;28;20249;-55
2022/11/08 02:26:38;;;;;;;8.07;7.28;;;;;;;11.48;100.00;98647.84;5028475;28;20247;-55
2022/11/08 02:29:28;;;;;;;10.55;7.13;;;;;;;11.61;100.00;98663.41;5031861;28;20174;-55
2022/11/08 02:31:54;;;;;;;11.20;6.70;;;;;;;11.62;100.00;98667.66;5031894;28;20713;-55
2022/11/08 02:34:26;;;;;;;10.50;7.53;;;;;;;11.54;100.00;98672.50;5031905;28;20198;-55
2022/11/08 02:36:51;;;;;;;9.90;7.38;;;;;;;11.59;100.00;98678.22;5032037;28;20646;-55
2022/11/08 02:39:17;;;;;;;11.80;7.28;;;;;;;11.58;100.00;98684.31;5031817;28;20174;-55
2022/11/08 02:41:42;;;;;;;12.98;8.30;;;;;;;11.41;100.00;98675.09;5031745;28;20201;-55
2022/11/08 02:44:08;;;;;;;11.98;8.10;;;;;;;11.47;100.00;98691.97;5031580;28;20264;-55
2022/11/08 02:46:33;;;;;;;14.82;9.90;;;;;;;11.49;100.00;98697.91;5031733;28;20244;-55
2022/11/08 02:48:58;;;;;;;15.20;10.52;;;;;;;11.61;100.00;98704.88;5031701;28;20174;-55
2022/11/08 02:51:24;;;;;;;19.05;12.48;;;;;;;11.69;100.00;98705.19;5031620;28;20217;-55
2022/11/08 02:53:49;;;;;;;23.55;14.25;;;;;;;11.79;100.00;98711.41;5031944;28;20235;-55
2022/11/08 02:56:15;;;;;;;21.80;13.38;;;;;;;11.78;100.00;98696.78;5031557;28;20205;-54
2022/11/08 02:58:40;;;;;;;17.80;13.43;;;;;;;11.59;100.00;98707.56;5031608;28;20174;-55
2022/11/08 03:01:06;;;;;;;19.15;13.90;;;;;;;11.55;100.00;98702.69;5031701;28;20194;-54
2022/11/08 03:03:31;;;;;;;24.45;14.65;;;;;;;11.69;100.00;98698.25;5031645;28;20181;-55
2022/11/08 03:05:56;;;;;;;23.92;14.35;;;;;;;11.59;100.00;98701.53;5031652;28;20170;-55
2022/11/08 03:08:22;;;;;;;23.40;14.38;;;;;;;11.40;100.00;98694.19;5031538;28;20681;-55
2022/11/08 03:10:47;;;;;;;21.08;13.25;;;;;;;11.20;100.00;98702.44;5031520;28;20197;-54
2022/11/08 03:13:13;;;;;;;21.40;14.00;;;;;;;11.00;100.00;98704.69;5031657;28;20171;-55
2022/11/08 03:15:38;;;;;;;20.50;14.00;;;;;;;10.97;100.00;98703.13;5031397;28;20174;-55
2022/11/08 03:18:04;;;;;;;20.45;14.40;;;;;;;11.17;100.00;98707.00;5031664;28;20184;-55
2022/11/08 03:20:29;;;;;;;19.42;13.50;;;;;;;11.36;100.00;98699.66;5034436;28;20285;-55
2022/11/08 03:22:59;;;;;;;19.52;13.27;;;;;;;11.42;100.00;98704.41;5035556;28;20197;-55
2022/11/08 03:25:25;;;;;;;23.13;14.27;;;;;;;11.40;100.00;98703.69;5035237;28;20186;-55
2022/11/08 03:27:51;;;;;;;21.52;12.75;;;;;;;11.31;100.00;98704.31;5035418;28;20174;-55
2022/11/08 03:30:16;;;;;;;22.85;12.98;;;;;;;11.03;100.00;98691.53;5035192;28;20205;-55
2022/11/08 03:32:48;;;;;;;20.58;13.98;;;;;;;11.11;100.00;98702.22;5035370;28;20178;-55
2022/11/08 03:35:14;;;;;;;18.65;11.90;;;;;;;11.00;100.00;98695.16;5035327;28;20186;-55
2022/11/08 03:37:39;;;;;;;20.08;13.57;;;;;;;11.16;100.00;98702.75;5035368;28;20178;-55
2022/11/08 03:40:05;;;;;;;19.52;12.75;;;;;;;11.17;100.00;98702.66;5034980;28;20174;-55
2022/11/08 03:42:31;;;;;;;17.85;11.60;;;;;;;11.28;100.00;98704.53;5034943;28;20182;-55
2022/11/08 03:44:56;;;;;;;20.20;12.27;;;;;;;11.31;100.00;98707.72;5034678;28;20287;-55
2022/11/08 03:47:21;;;;;;;20.80;13.52;;;;;;;11.16;100.00;98706.16;5035205;28;20182;-55
2022/11/08 03:49:47;;;;;;;24.05;14.77;;;;;;;11.12;100.00;98709.06;5017040;28;20265;-56
2022/11/08 03:52:12;;;;;;;21.77;13.70;;;;;;;11.18;100.00;98706.06;5034668;28;20261;-56
2022/11/08 03:54:38;;;;;;;18.35;13.18;;;;;;;11.27;100.00;98708.03;5034909;28;20205;-56
2022/11/08 03:57:03;;;;;;;20.67;13.38;;;;;;;11.35;100.00;98713.53;5034684;28;20257;-55
2022/11/08 03:59:28;;;;;;;19.15;13.73;;;;;;;11.33;100.00;98711.03;5034935;28;20178;-56
2022/11/08 04:01:54;;;;;;;23.85;14.05;;;;;;;11.35;100.00;98703.16;5034521;28;20687;-55
2022/11/08 04:04:19;;;;;;;22.50;14.02;;;;;;;11.53;100.00;98710.56;5034530;28;20185;-56
2022/11/08 04:06:45;;;;;;;23.27;16.17;;;;;;;11.64;100.00;98707.25;5035079;28;20265;-56
2022/11/08 04:09:10;;;;;;;25.75;15.88;;;;;;;11.78;100.00;98702.78;5016786;28;20185;-55
2022/11/08 04:17:03;;;;;;;26.00;15.60;;;;;;;11.70;100.00;98696.47;5034780;28;20642;-56
2022/11/08 04:22:13;;;;;;;21.58;13.73;;;;;;;11.67;100.00;98687.13;5034261;28;20289;-55
2022/11/08 04:24:38;;;;;;;23.63;14.45;;;;;;;11.62;100.00;98680.63;5034379;28;20646;-56
2022/11/08 04:27:03;;;;;;;23.60;13.73;;;;;;;11.72;100.00;98676.47;5034126;28;20182;-56
2022/11/08 04:29:29;;;;;;;24.33;13.73;;;;;;;11.65;100.00;98667.44;5034274;28;20174;-56
2022/11/08 04:31:55;;;;;;;21.38;13.80;;;;;;;11.68;100.00;98677.59;5033267;28;20585;-56
2022/11/08 04:34:22;;;;;;;23.08;14.45;;;;;;;11.68;100.00;98678.41;5033999;28;20671;-55
2022/11/08 04:36:48;;;;;;;18.85;13.50;;;;;;;11.75;100.00;98681.44;5033952;28;20189;-56
2022/11/08 04:39:13;;;;;;;22.40;14.02;;;;;;;11.84;100.00;98684.22;5034116;28;20178;-56
2022/11/08 04:41:39;;;;;;;19.48;13.70;;;;;;;11.83;100.00;98695.53;5016077;28;20770;-56
2022/11/08 04:44:04;;;;;;;16.42;11.63;;;;;;;11.93;100.00;98693.97;5033674;28;20280;-56
2022/11/08 04:46:29;;;;;;;16.75;9.15;;;;;;;11.94;100.00;98699.97;5033805;28;20660;-56
2022/11/08 04:48:57;;;;;;;15.77;9.73;;;;;;;11.94;100.00;98702.56;5034004;28;20184;-56
2022/11/08 04:51:26;;;;;;;15.07;10.48;;;;;;;11.91;100.00;98708.78;5033663;28;20334;-56
2022/11/08 04:53:53;;;;;;;16.13;11.98;;;;;;;11.92;100.00;98710.47;5033566;28;20232;-56
2022/11/08 04:56:20;;;;;;;17.80;12.13;;;;;;;11.93;100.00;98722.50;5033829;28;20225;-56
2022/11/08 04:58:50;;;;;;;21.60;12.90;;;;;;;11.71;100.00;98726.63;5033781;28;20264;-56
2022/11/08 05:01:21;;;;;;;17.60;12.80;;;;;;;11.76;100.00;98724.56;5033440;28;20194;-55
2022/11/08 05:03:48;;;;;;;19.92;13.40;;;;;;;11.54;100.00;98725.16;5015717;28;20170;-55
2022/11/08 05:06:16;;;;;;;20.13;13.10;;;;;;;11.57;100.00;98716.34;5033832;28;20605;-55
2022/11/08 05:08:42;;;;;;;18.52;12.07;;;;;;;11.47;100.00;98734.28;5033407;28;20209;-55
2022/11/08 05:11:14;;;;;;;14.07;10.40;;;;;;;11.52;100.00;98732.22;5033437;28;20209;-55
2022/11/08 05:13:39;;;;;;;16.02;10.27;;;;;;;11.58;100.00;98738.75;5033555;28;20237;-55
2022/11/08 05:16:26;;;;;;;14.07;10.15;;;;;;;11.70;100.00;98743.97;5015358;28;20178;-55
2022/11/08 05:18:53;;;;;;;14.82;10.23;;;;;;;11.70;100.00;98741.38;5033429;28;20174;-55
2022/11/08 05:24:05;;;;;;;18.92;12.02;;;;;;;11.44;100.00;98705.16;5033670;28;20314;-55
2022/11/08 05:26:33;;;;;;;15.43;10.60;;;;;;;11.64;100.00;98746.13;5033169;28;20648;-55
2022/11/08 05:28:58;;;;;;;13.82;9.48;;;;;;;11.67;100.00;98749.34;5032832;28;20175;-55
2022/11/08 05:31:24;;;;;;;11.85;8.05;;;;;;;11.88;100.00;98754.84;5032868;28;20288;-55
2022/11/08 05:33:49;;;;;;;12.70;8.52;;;;;;;11.85;100.00;98723.94;5032809;28;20179;-55
2022/11/08 05:36:15;;;;;;;13.07;9.48;;;;;;;11.97;100.00;98746.44;5032711;28;20182;-55
2022/11/08 05:38:41;;;;;;;13.57;9.07;;;;;;;11.82;100.00;98744.88;5015303;28;20269;-55
2022/11/08 05:41:17;;;;;;;11.80;7.90;;;;;;;11.93;100.00;98758.78;5033023;28;20591;-55
2022/11/08 05:43:45;;;;;;;14.88;8.30;;;;;;;11.89;100.00;98759.94;5032298;28;20710;-55
2022/11/08 05:46:11;;;;;;;11.57;8.38;;;;;;;11.92;100.00;98761.47;5032480;28;20572;-55
2022/11/08 05:48:37;;;;;;;11.95;7.57;;;;;;;11.96;100.00;98757.75;5032453;28;20178;-55
2022/11/08 05:51:03;;;;;;;10.93;9.05;;;;;;;11.98;100.00;98767.09;5032874;28;20201;-55
2022/11/08 05:53:29;;;;;;;10.30;7.95;;;;;;;11.91;100.00;98759.81;5032484;28;20205;-55
2022/11/08 05:56:01;;;;;;;12.88;8.82;;;;;;;12.02;100.00;98770.31;5032499;28;20271;-55
2022/11/08 05:58:28;;;;;;;12.30;8.93;;;;;;;12.05;100.00;98773.50;5032429;28;20647;-55
2022/11/08 06:01:01;;;;;;;12.30;8.27;;;;;;;12.00;100.00;98766.97;5032225;28;20202;-55
2022/11/08 06:03:27;;;;;;;12.63;8.60;;;;;;;12.11;100.00;98773.09;5032546;28;20178;-55
2022/11/08 06:05:53;;;;;;;12.48;8.98;;;;;;;12.08;100.00;98767.28;5032253;28;20746;-55
2022/11/08 06:08:18;;;;;;;14.13;8.98;;;;;;;12.18;100.00;98778.66;5032532;28;20175;-55
2022/11/08 06:10:44;;;;;;;11.40;8.23;;;;;;;12.28;100.00;98784.88;5032253;28;20550;-56
2022/11/08 06:13:09;;;;;;;11.75;8.63;;;;;;;12.35;100.00;98780.91;5032448;28;20240;-56
2022/11/08 06:15:34;;;;;;;15.20;9.15;;;;;;;12.40;100.00;98789.22;5032226;28;20643;-55
2022/11/08 06:18:02;;;;;;;12.20;7.72;;;;;;;12.32;100.00;98781.16;5032143;28;20179;-56
2022/11/08 06:20:27;;;;;;;8.60;7.18;;;;;;;12.45;100.00;98785.38;5031958;28;20234;-55
2022/11/08 06:22:54;;;;;;;10.15;6.50;;;;;;;12.44;100.00;98780.28;5014362;28;20193;-55
2022/11/08 06:25:19;;;;;;;12.75;7.00;;;;;;;12.46;100.00;98793.97;5032189;28;20236;-55
2022/11/08 06:27:45;;;;;;;11.30;7.65;;;;;;;12.50;100.00;98785.91;5031901;28;20190;-55
2022/11/08 06:30:11;;;;;;;8.43;7.18;;;;;;;12.52;100.00;98790.94;5032140;28;20174;-56
2022/11/08 06:32:36;;;;;;;9.63;7.25;;;;;;;12.43;100.00;98797.63;5032158;28;20178;-55
2022/11/08 06:35:02;;;;;;;7.85;6.63;;;;;;;12.44;100.00;98794.06;5031725;28;20227;-55
2022/11/08 06:37:27;;;;;;;9.48;6.80;;;;;;;12.48;100.00;98792.94;5031892;28;20267;-55
2022/11/08 06:39:52;;;;;;;8.93;6.63;;;;;;;12.40;100.00;98789.22;5031709;28;20647;-56
2022/11/08 06:42:18;;;;;;;10.02;6.40;;;;;;;12.51;100.00;98797.09;5031733;28;20266;-55
2022/11/08 06:44:43;;;;;;;11.50;7.63;;;;;;;12.57;100.00;98791.47;5031600;28;20210;-55
2022/11/08 06:47:08;;;;;;;9.50;6.72;;;;;;;12.62;100.00;98795.41;5032195;28;20177;-56
2022/11/08 06:49:36;;;;;;;9.27;7.55;;;;;;;12.71;100.00;98794.75;5031944;28;20186;-56
2022/11/08 06:52:01;;;;;;;8.90;6.93;;;;;;;12.64;100.00;98793.53;5031660;28;20174;-56
2022/11/08 06:54:26;;;;;;;9.65;6.90;;;;;;;12.62;100.00;98797.16;5035064;28;20185;-56
2022/11/08 06:56:54;;;;;;;10.80;7.90;;;;;;;12.68;100.00;98794.97;5038273;28;20174;-56
2022/11/08 06:59:20;;;;;;;9.93;6.90;;;;;;;12.77;100.00;98785.72;5038245;28;20200;-56
2022/11/08 07:01:46;;;;;;;9.77;6.63;;;;;;;12.90;100.00;98797.69;5038343;28;20201;-56
2022/11/08 07:04:11;;;;;;;9.10;6.85;;;;;;;12.99;100.00;98791.03;5038208;28;20228;-56
2022/11/08 07:06:36;;;;;;;11.90;7.32;;;;;;;13.04;100.00;98797.56;5038180;28;20181;-56
2022/11/08 07:09:02;;;;;;;9.50;6.85;;;;;;;13.11;100.00;98787.53;5038413;28;20209;-56
2022/11/08 07:11:27;;;;;;;12.77;6.97;;;;;;;13.09;100.00;98784.22;5038252;28;20605;-56
2022/11/08 07:13:53;;;;;;;10.43;6.63;;;;;;;13.14;100.00;98793.38;5038099;28;20635;-56
2022/11/08 07:16:18;;;;;;;10.68;6.43;;;;;;;13.08;100.00;98793.78;5038179;28;20178;-56
2022/11/08 07:18:43;;;;;;;9.63;6.85;;;;;;;13.14;100.00;98793.38;5038079;28;20201;-56
2022/11/08 07:21:09;;;;;;;12.38;6.93;;;;;;;13.25;100.00;98789.97;5038006;28;20210;-56
2022/11/08 07:23:34;;;;;;;15.60;7.50;;;;;;;13.29;100.00;98783.63;5038233;28;20308;-56
2022/11/08 07:26:04;;;;;;;12.48;6.95;;;;;;;13.32;100.00;98786.81;5037959;28;20182;-56
2022/11/08 07:28:30;;;;;;;12.15;6.68;;;;;;;13.39;100.00;98789.78;5037855;28;20690;-56
2022/11/08 07:30:58;;;;;;;8.80;6.10;;;;;;;13.44;100.00;98785.06;5037949;28;20264;-56
2022/11/08 07:33:23;;;;;;;10.90;6.90;;;;;;;13.47;100.00;98784.88;5037914;28;20598;-56
2022/11/08 07:35:49;;;;;;;8.55;6.90;;;;;;;13.56;100.00;98790.19;5037939;28;20181;-57
2022/11/08 07:38:14;;;;;;;9.85;6.07;;;;;;;13.67;100.00;98797.19;5038071;28;20236;-56
2022/11/08 07:40:40;;;;;;;7.78;6.60;;;;;;;13.72;100.00;98776.88;5038063;28;20582;-56
2022/11/08 07:43:05;;;;;;;10.38;6.13;;;;;;;13.85;99.58;98785.41;5037818;28;20182;-57
2022/11/08 07:45:30;;;;;;;7.93;5.97;;;;;;;13.91;99.49;98790.16;5037677;28;20268;-56
2022/11/08 07:48:05;;;;;;;9.20;5.63;;;;;;;13.98;98.62;98793.94;5037759;28;20182;-56
2022/11/08 07:50:31;;;;;;;10.88;6.57;;;;;;;13.88;98.97;98796.41;5037866;28;20166;-57
2022/11/08 07:52:57;;;;;;;8.88;5.72;;;;;;;13.87;99.33;98780.91;5037754;28;20205;-56
2022/11/08 07:55:24;;;;;;;10.85;6.57;;;;;;;13.97;99.95;98794.88;5037702;28;20188;-56
2022/11/08 07:57:49;;;;;;;8.93;6.47;;;;;;;14.05;99.42;98789.94;5037727;28;20209;-56
2022/11/08 08:00:15;;;;;;;11.18;6.40;;;;;;;14.12;99.26;98789.31;5037647;28;20205;-56
2022/11/08 08:02:41;;;;;;;8.20;6.28;;;;;;;14.20;98.81;98792.22;5037782;28;20208;-56
2022/11/08 08:05:07;;;;;;;11.45;6.38;;;;;;;14.28;98.23;98784.63;5036860;28;20178;-56
2022/11/08 08:07:34;;;;;;;12.20;6.90;;;;;;;14.40;98.18;98788.06;5034521;28;20170;-56
2022/11/08 08:09:59;;;;;;;9.07;6.13;;;;;;;14.53;97.13;98788.78;5034794;28;20178;-56
2022/11/08 08:12:25;;;;;;;8.68;6.30;;;;;;;14.68;97.06;98777.13;5034511;28;20677;-56
2022/11/08 08:14:50;;;;;;;8.27;6.28;;;;;;;14.86;95.23;98786.09;5034384;28;20700;-56
2022/11/08 08:17:15;;;;;;;6.75;6.05;;;;;;;14.96;95.35;98787.84;5034370;28;20265;-57
2022/11/08 08:19:41;;;;;;;11.40;5.78;;;;;;;15.13;95.56;98789.94;5034525;28;20277;-56
2022/11/08 08:22:07;;;;;;;8.48;5.43;;;;;;;15.22;92.91;98780.53;5034292;28;20203;-56
2022/11/08 08:24:32;;;;;;;8.32;5.75;;;;;;;15.38;92.92;98783.56;5034116;28;20570;-56
2022/11/08 08:26:57;;;;;;;11.05;6.30;;;;;;;15.49;92.50;98780.91;5034462;28;20182;-56
2022/11/08 08:29:23;;;;;;;8.23;6.50;;;;;;;15.66;90.81;98783.78;5034204;28;20171;-56
2022/11/08 08:31:48;;;;;;;11.13;6.65;;;;;;;15.71;90.32;98791.22;5034216;28;20659;-56
2022/11/08 08:34:17;;;;;;;12.32;9.13;;;;;;;15.62;91.89;98769.34;5033917;28;20170;-56
2022/11/08 08:36:43;;;;;;;14.63;10.52;;;;;;;15.59;96.03;98787.03;5033984;28;20557;-56
2022/11/08 08:39:09;;;;;;;14.60;9.52;;;;;;;15.62;96.35;98786.78;5033862;28;20170;-56
2022/11/08 08:41:34;;;;;;;17.70;11.20;;;;;;;15.62;97.84;98792.00;5034041;28;20209;-56
2022/11/08 08:43:59;;;;;;;20.60;12.70;;;;;;;15.61;99.60;98796.38;5033719;28;20210;-56
2022/11/08 08:46:25;;;;;;;18.13;13.27;;;;;;;15.67;99.99;98793.25;5033885;28;20269;-56
2022/11/08 08:48:51;;;;;;;24.35;14.68;;;;;;;15.76;100.00;98794.28;5034009;28;20173;-56
2022/11/08 08:51:16;;;;;;;24.02;14.98;;;;;;;15.85;100.00;98794.34;5033745;28;20171;-56
2022/11/08 08:53:41;;;;;;;22.60;15.45;;;;;;;15.72;100.00;98803.31;5033887;28;20162;-56
2022/11/08 08:56:07;;;;;;;24.50;15.10;;;;;;;15.70;100.00;98802.63;5033719;28;20743;-56
2022/11/08 08:58:33;;;;;;;20.80;15.23;;;;;;;15.80;100.00;98812.16;5033425;28;20232;-56
2022/11/08 09:01:04;;;;;;;23.35;15.77;;;;;;;15.87;100.00;98800.25;5033904;28;20210;-56
2022/11/08 09:03:30;;;;;;;31.90;16.35;;;;;;;15.96;100.00;98801.25;5033513;28;20163;-56
2022/11/08 09:05:57;;;;;;;26.67;16.42;;;;;;;16.09;100.00;98794.06;5033410;28;20178;-56
2022/11/08 09:08:23;;;;;;;34.35;17.20;;;;;;;16.17;100.00;98799.44;5033694;28;20564;-56
2022/11/08 09:10:56;;;;;;;26.90;16.75;;;;;;;16.18;100.00;98794.09;5033626;28;20205;-56
2022/11/08 09:13:23;;;;;;;32.03;16.52;;;;;;;16.29;100.00;98795.78;5033491;28;20612;-56
2022/11/08 09:15:48;;;;;;;24.70;16.60;;;;;;;16.40;100.00;98796.56;5033243;28;20170;-56
2022/11/08 09:18:14;;;;;;;25.13;16.20;;;;;;;16.53;100.00;98796.31;5032470;28;20197;-56
2022/11/08 09:20:42;;;;;;;24.08;15.65;;;;;;;16.59;98.63;98790.56;5033213;28;20205;-56
2022/11/08 09:23:09;;;;;;;22.52;15.70;;;;;;;16.60;97.99;98792.22;5033290;28;20189;-56
2022/11/08 09:25:35;;;;;;;27.13;15.02;;;;;;;16.71;98.25;98792.97;5032895;28;20181;-56
2022/11/08 09:28:00;;;;;;;46.05;34.60;;;;;;;16.81;97.90;98796.44;5032995;28;20170;-56
2022/11/08 09:30:25;;;;;;;32.33;19.40;;;;;;;16.88;96.83;98799.31;5033046;28;20166;-56
2022/11/08 09:32:54;;;;;;;20.63;15.07;;;;;;;16.93;95.91;98794.50;5032931;28;20174;-56
2022/11/08 09:35:20;;;;;;;29.17;14.75;;;;;;;16.96;94.80;98787.22;5032873;28;20254;-56
2022/11/08 09:37:45;;;;;;;21.80;15.52;;;;;;;16.88;95.04;98787.09;5032862;28;20185;-56
2022/11/08 09:40:17;;;;;;;28.00;15.90;;;;;;;16.86;95.93;98788.19;5032879;28;20166;-56
2022/11/08 09:42:52;;;;;;;23.85;15.40;;;;;;;16.87;95.87;98789.81;5032805;28;20236;-56
2022/11/08 09:45:26;;;;;;;26.52;15.60;;;;;;;16.88;94.94;98788.84;5032627;28;20290;-56
2022/11/08 09:48:01;;;;;;;27.67;16.08;;;;;;;16.94;93.37;98780.47;5032956;28;20200;-56
2022/11/08 09:50:43;;;;;;;27.73;16.02;;;;;;;16.88;94.36;98787.09;5032690;28;20171;-56
2022/11/08 09:53:26;;;;;;;32.97;17.80;;;;;;;16.64;95.43;98785.78;5032757;28;20592;-56
2022/11/08 09:56:10;;;;;;;26.35;17.33;;;;;;;16.58;96.02;98788.94;5033104;28;20166;-56
2022/11/08 09:58:42;;;;;;;32.72;18.02;;;;;;;16.63;96.47;98791.97;5032868;28;20169;-56
2022/11/08 10:01:10;;;;;;;28.83;17.42;;;;;;;16.55;96.32;98781.38;5032515;28;20198;-56
2022/11/08 10:03:36;;;;;;;24.55;16.38;;;;;;;16.66;96.28;98786.47;5032291;28;20186;-56
2022/11/08 10:06:26;;;;;;;27.73;17.35;;;;;;;16.76;95.52;98782.94;5032588;28;20178;-56
2022/11/08 10:09:15;;;;;;;28.17;17.92;;;;;;;16.60;96.21;98781.78;5032278;28;20173;-56
2022/11/08 10:12:02;;;;;;;27.02;17.75;;;;;;;16.54;96.23;98777.06;5032355;28;20624;-56
2022/11/08 10:14:39;;;;;;;25.05;16.88;;;;;;;16.61;96.52;98779.03;5032985;28;20158;-56
2022/11/08 10:17:30;;;;;;;23.50;16.77;;;;;;;16.62;96.56;98775.44;5032179;28;20170;-56
2022/11/08 10:20:08;;;;;;;24.60;17.30;;;;;;;16.70;95.30;98773.03;5032007;28;20269;-56
2022/11/08 10:22:57;;;;;;;27.45;17.95;;;;;;;16.76;96.11;98775.09;5031947;28;20194;-57
2022/11/08 10:25:29;;;;;;;26.05;16.80;;;;;;;16.86;96.05;98775.09;4994885;28;20186;-55
2022/11/08 10:27:59;;;;;;;24.90;16.40;;;;;;;17.02;95.27;98775.41;5032039;28;20219;-55
2022/11/08 10:30:32;;;;;;;27.38;16.75;;;;;;;17.19;94.44;98780.78;5031586;28;20596;-55
2022/11/08 10:32:58;;;;;;;24.70;16.23;;;;;;;17.35;93.43;98775.00;5014094;28;20247;-55
2022/11/08 10:35:30;;;;;;;27.80;16.25;;;;;;;17.52;92.42;98776.94;5031782;28;20655;-55
2022/11/08 10:37:58;;;;;;;26.15;16.75;;;;;;;17.71;90.49;98776.91;5032001;28;20201;-55
2022/11/08 10:40:46;;;;;;;22.02;16.45;;;;;;;17.82;90.51;98772.34;5013858;28;20261;-55
2022/11/08 10:43:18;;;;;;;23.52;16.55;;;;;;;17.99;89.82;98769.00;5031837;28;20558;-55
2022/11/08 10:45:43;;;;;;;26.65;18.13;;;;;;;18.05;88.86;98764.97;5032036;28;20658;-56
2022/11/08 10:48:10;;;;;;;25.63;17.75;;;;;;;18.15;89.25;98764.00;5014046;28;20193;-57
2022/11/08 10:50:42;;;;;;;24.98;17.33;;;;;;;18.12;88.98;98734.66;5031865;28;20260;-55
2022/11/08 10:53:16;;;;;;;28.85;18.50;;;;;;;18.32;88.47;98752.78;5031820;28;20165;-56
2022/11/08 10:55:57;;;;;;;27.50;18.52;;;;;;;18.39;88.50;98751.22;5031734;28;20166;-56
2022/11/08 10:58:30;;;;;;;27.60;19.00;;;;;;;18.28;87.38;98740.06;5031862;28;20186;-56
2022/11/08 11:01:13;;;;;;;30.02;18.27;;;;;;;18.47;86.53;98750.50;5032016;28;20293;-56
2022/11/08 11:03:39;;;;;;;25.33;18.38;;;;;;;18.51;86.74;98749.22;5031471;28;20182;-56
2022/11/08 11:06:18;;;;;;;26.42;18.88;;;;;;;18.59;86.52;98751.97;5031337;28;20170;-56
2022/11/08 11:08:49;;;;;;;29.35;18.73;;;;;;;18.69;86.62;98750.09;5031401;28;20177;-56
2022/11/08 11:11:23;;;;;;;26.13;18.95;;;;;;;18.74;86.22;98738.22;5031311;28;20181;-56
2022/11/08 11:14:16;;;;;;;32.13;18.52;;;;;;;18.84;85.62;98749.44;5031271;28;20166;-56
2022/11/08 11:16:54;;;;;;;28.23;19.15;;;;;;;18.93;85.34;98740.69;5028177;28;20190;-56
2022/11/08 11:19:20;;;;;;;28.27;18.25;;;;;;;19.01;84.96;98732.09;5031428;28;20631;-56
2022/11/08 11:21:52;;;;;;;28.38;19.42;;;;;;;19.06;83.14;98735.88;5031315;28;20208;-56
2022/11/08 11:24:19;;;;;;;27.45;19.05;;;;;;;19.09;83.98;98734.75;5031377;28;20553;-56
2022/11/08 11:26:55;;;;;;;29.40;18.30;;;;;;;19.10;83.73;98734.63;5031327;28;20639;-56
2022/11/08 11:29:34;;;;;;;27.50;18.48;;;;;;;19.03;82.84;98738.00;5031470;28;20252;-56
2022/11/08 11:32:21;;;;;;;29.48;19.73;;;;;;;19.11;83.09;98738.09;5031544;28;20151;-56
2022/11/08 11:34:55;;;;;;;29.80;19.08;;;;;;;19.06;82.91;98728.03;5031486;28;20182;-57
2022/11/08 11:37:44;;;;;;;28.20;18.42;;;;;;;18.96;83.37;98722.03;5031395;28;20177;-57
2022/11/08 11:40:39;;;;;;;25.98;19.00;;;;;;;18.82;84.08;98721.75;5020303;28;20224;-55
2022/11/08 11:43:33;;;;;;;31.17;19.23;;;;;;;18.68;84.68;98727.47;5035263;28;20166;-55
2022/11/08 11:46:24;;;;;;;27.73;18.58;;;;;;;18.62;84.84;98717.59;5035454;28;20216;-55